Time;durP1;ratioP1;P1;durP2;ratioP2;P2;SDS_P1;SDS_P2;PMS_P1;PMS_P2;Temp;Humidity;BMP_temperature;BMP_pressure;BME280_temperature;BME280_humidity;BME280_pressure;Samples;Min_cycle;Max_cycle;Signal;HPM_P1;HPM_P2
2023/03/02 00:02:16;;;;;;;;;;;;;;;2.74;60.35;99274.59;4454812;32;20691;-68
2023/03/02 00:04:54;;;;;;;;;;;;;;;2.73;60.03;99263.44;4440777;32;20322;-68
2023/03/02 00:07:23;;;;;;;;;;;;;;;2.73;60.32;99265.19;4454821;32;20039;-68
2023/03/02 00:09:50;;;;;;;;;;;;;;;2.70;60.18;99255.00;4454172;32;19984;-68
2023/03/02 00:12:17;;;;;;;;;;;;;;;2.66;60.39;99257.72;4425335;32;19976;-68
2023/03/02 00:14:45;;;;;;;;;;;;;;;2.55;60.52;99256.56;4452565;32;20004;-68
2023/03/02 00:17:12;;;;;;;;;;;;;;;2.47;60.51;99259.53;4454708;32;20082;-68
2023/03/02 00:19:40;;;;;;;;;;;;;;;2.46;60.12;99250.09;4454516;32;19968;-68
2023/03/02 00:22:07;;;;;;;;;;;;;;;2.54;59.70;99252.31;4454536;32;20284;-68
2023/03/02 00:24:37;;;;;;;;;;;;;;;2.48;59.87;99243.94;4454782;32;19984;-68
2023/03/02 00:27:05;;;;;;;;;;;;;;;2.43;60.54;99242.47;4454509;32;20385;-68
2023/03/02 00:29:32;;;;;;;;;;;;;;;2.40;60.83;99242.62;4454610;32;19980;-68
2023/03/02 00:32:00;;;;;;;;;;;;;;;2.40;60.85;99245.22;4454449;32;19980;-68
2023/03/02 00:34:31;;;;;;;;;;;;;;;2.36;61.25;99238.50;4454434;32;19992;-68
2023/03/02 00:36:58;;;;;;;;;;;;;;;2.36;61.50;99239.34;4454620;32;19985;-68
2023/03/02 00:39:26;;;;;;;;;;;;;;;2.28;62.13;99233.72;4454316;32;19981;-68
2023/03/02 00:41:53;;;;;;;;;;;;;;;2.24;62.48;99235.62;4454526;32;19999;-68
2023/03/02 00:44:20;;;;;;;;;;;;;;;2.25;62.87;99234.69;4454579;32;20040;-68
2023/03/02 00:46:48;;;;;;;;;;;;;;;2.22;63.03;99229.66;4454446;32;20025;-68
2023/03/02 00:49:15;;;;;;;;;;;;;;;2.19;63.08;99227.22;4440401;32;19998;-68
2023/03/02 00:51:42;;;;;;;;;;;;;;;2.08;64.24;99222.56;4454441;32;20364;-68
2023/03/02 00:54:10;;;;;;;;;;;;;;;1.99;65.95;99225.59;4454540;32;19977;-68
2023/03/02 00:56:37;;;;;;;;;;;;;;;2.00;67.10;99221.25;4454459;32;20003;-68
2023/03/02 00:59:05;;;;;;;;;;;;;;;1.83;68.87;99217.69;4454648;32;19972;-68
2023/03/02 01:01:33;;;;;;;;;;;;;;;1.85;69.83;99208.16;4440324;32;19988;-68
2023/03/02 01:04:01;;;;;;;;;;;;;;;1.88;69.78;99212.34;4454168;32;19981;-68
2023/03/02 01:06:28;;;;;;;;;;;;;;;1.95;69.51;99209.41;4454543;32;19998;-68
2023/03/02 01:08:56;;;;;;;;;;;;;;;1.99;69.64;99204.91;4454281;32;19991;-68
2023/03/02 01:11:23;;;;;;;;;;;;;;;1.94;70.33;99202.53;4443738;32;20042;-68
2023/03/02 01:13:50;;;;;;;;;;;;;;;1.91;70.18;99192.34;4446318;32;19984;-68
2023/03/02 01:16:18;;;;;;;;;;;;;;;1.89;69.72;99189.03;4454184;32;20012;-68
2023/03/02 01:18:45;;;;;;;;;;;;;;;1.94;68.21;99189.62;4454336;32;19984;-68
2023/03/02 01:21:13;;;;;;;;;;;;;;;2.00;67.74;99179.91;4454305;32;19980;-68
2023/03/02 01:23:41;;;;;;;;;;;;;;;2.10;66.29;99184.56;4454204;32;20000;-68
2023/03/02 01:26:08;;;;;;;;;;;;;;;2.11;65.83;99170.72;4454559;32;20376;-68
2023/03/02 01:28:35;;;;;;;;;;;;;;;2.12;65.75;99169.00;4454082;32;19980;-67
2023/03/02 01:31:03;;;;;;;;;;;;;;;2.12;64.93;99169.00;4454182;32;19976;-68
2023/03/02 01:33:31;;;;;;;;;;;;;;;2.17;63.85;99171.38;4454137;32;19995;-68
2023/03/02 01:35:58;;;;;;;;;;;;;;;2.14;62.98;99164.59;4452952;32;20006;-68
2023/03/02 01:38:26;;;;;;;;;;;;;;;2.16;62.66;99155.00;4453954;32;20274;-68
2023/03/02 01:40:54;;;;;;;;;;;;;;;2.20;61.36;99151.38;4453913;32;19984;-68
2023/03/02 01:43:21;;;;;;;;;;;;;;;2.19;60.77;99151.44;4454001;32;19977;-68
2023/03/02 01:45:50;;;;;;;;;;;;;;;2.23;60.01;99151.22;4453849;32;19991;-68
2023/03/02 01:48:21;;;;;;;;;;;;;;;2.21;58.76;99147.87;4454245;32;19999;-68
2023/03/02 01:50:48;;;;;;;;;;;;;;;2.23;58.43;99145.22;4440413;32;20368;-68
2023/03/02 01:53:16;;;;;;;;;;;;;;;2.22;58.38;99143.53;4453854;32;20398;-68
2023/03/02 01:55:43;;;;;;;;;;;;;;;2.12;57.88;99143.16;4454095;32;20029;-68
2023/03/02 01:58:12;;;;;;;;;;;;;;;2.12;57.58;99143.16;4439995;32;20039;-68
2023/03/02 02:00:40;;;;;;;;;;;;;;;2.05;57.62;99128.84;4439907;32;20313;-68
2023/03/02 02:03:13;;;;;;;;;;;;;;;1.99;57.85;99136.91;4439979;32;20342;-68
2023/03/02 02:05:42;;;;;;;;;;;;;;;1.92;58.44;99120.84;4453908;32;19985;-68
2023/03/02 02:08:09;;;;;;;;;;;;;;;1.83;59.09;99122.13;4453722;32;20007;-67
2023/03/02 02:10:37;;;;;;;;;;;;;;;1.76;59.85;99115.59;4448756;32;20007;-68
2023/03/02 02:13:05;;;;;;;;;;;;;;;1.75;60.52;99119.91;4427312;32;20285;-68
2023/03/02 02:15:33;;;;;;;;;;;;;;;1.76;61.45;99120.75;4437235;32;81590;-68
2023/03/02 02:18:00;;;;;;;;;;;;;;;1.78;61.80;99124.09;4453384;32;19984;-68
2023/03/02 02:20:28;;;;;;;;;;;;;;;1.77;62.46;99120.69;4453692;32;19990;-68
2023/03/02 02:23:05;;;;;;;;;;;;;;;1.69;62.98;99111.63;4454302;32;20044;-68
2023/03/02 02:25:42;;;;;;;;;;;;;;;1.69;63.02;99114.19;4441927;32;20859;-68
2023/03/02 02:28:11;;;;;;;;;;;;;;;1.71;63.05;99110.66;4455576;32;20055;-68
2023/03/02 02:30:38;;;;;;;;;;;;;;;1.76;63.47;99113.00;4441433;32;20524;-68
2023/03/02 02:33:06;;;;;;;;;;;;;;;1.81;63.48;99111.03;4455703;32;20000;-68
2023/03/02 02:35:35;;;;;;;;;;;;;;;1.81;63.89;99108.44;4441472;32;20002;-68
2023/03/02 02:38:04;;;;;;;;;;;;;;;1.75;64.81;99108.75;4455360;32;19985;-68
2023/03/02 02:40:50;;;;;;;;;;;;;;;1.77;65.25;99112.94;4441586;32;19984;-68
2023/03/02 02:43:19;;;;;;;;;;;;;;;1.75;65.41;99113.91;4441598;32;19988;-68
2023/03/02 02:45:48;;;;;;;;;;;;;;;1.74;66.18;99114.81;4455236;32;20059;-68
2023/03/02 02:48:15;;;;;;;;;;;;;;;1.72;66.61;99109.72;4441448;32;20022;-68
2023/03/02 02:50:43;;;;;;;;;;;;;;;1.77;66.97;99112.06;4428769;32;20040;-68
2023/03/02 02:53:21;;;;;;;;;;;;;;;1.76;67.51;99107.84;4441238;32;19988;-68
2023/03/02 02:55:49;;;;;;;;;;;;;;;1.72;68.08;99108.87;4455697;32;20403;-68
2023/03/02 02:58:32;;;;;;;;;;;;;;;1.75;68.46;99108.75;4441275;32;19972;-68
2023/03/02 03:01:00;;;;;;;;;;;;;;;1.81;68.67;99110.19;4455146;32;20033;-67
2023/03/02 03:03:35;;;;;;;;;;;;;;;1.81;69.24;99112.78;4455278;32;19980;-68
2023/03/02 03:06:05;;;;;;;;;;;;;;;1.81;70.01;99111.03;4455467;32;20024;-68
2023/03/02 03:08:44;;;;;;;;;;;;;;;1.80;71.41;99111.09;4455175;32;19976;-68
2023/03/02 03:11:22;;;;;;;;;;;;;;;1.80;72.41;99109.34;4446601;32;19981;-67
2023/03/02 03:13:51;;;;;;;;;;;;;;;1.82;73.34;99099.81;4447111;32;19976;-68
2023/03/02 03:16:19;;;;;;;;;;;;;;;1.72;74.99;99103.72;4455185;32;20015;-68
2023/03/02 03:18:49;;;;;;;;;;;;;;;1.74;75.86;99110.50;4441213;32;19995;-68
2023/03/02 03:21:18;;;;;;;;;;;;;;;1.75;76.73;99106.16;4441438;32;20052;-68
2023/03/02 03:23:45;;;;;;;;;;;;;;;1.70;77.98;99110.72;4455088;32;19980;-68
2023/03/02 03:26:13;;;;;;;;;;;;;;;1.74;78.40;99112.22;4455060;32;19977;-67
2023/03/02 03:28:41;;;;;;;;;;;;;;;1.76;78.69;99108.66;4454987;32;20321;-68
2023/03/02 03:31:08;;;;;;;;;;;;;;;1.75;79.05;99107.00;4454984;32;19973;-68
2023/03/02 03:33:36;;;;;;;;;;;;;;;1.71;79.70;99114.94;4454729;32;20336;-68
2023/03/02 03:36:03;;;;;;;;;;;;;;;1.69;80.33;99114.19;4441168;32;20010;-68
2023/03/02 03:38:31;;;;;;;;;;;;;;;1.67;81.00;99116.84;4455139;32;19991;-68
2023/03/02 03:40:58;;;;;;;;;;;;;;;1.69;81.45;99120.19;4454788;32;19973;-68
2023/03/02 03:43:26;;;;;;;;;;;;;;;1.67;81.83;99116.03;4454975;32;20004;-68
2023/03/02 03:45:53;;;;;;;;;;;;;;;1.62;82.39;99118.84;4454858;32;20416;-68
2023/03/02 03:48:21;;;;;;;;;;;;;;;1.59;82.64;99114.63;4455224;32;19990;-68
2023/03/02 03:50:49;;;;;;;;;;;;;;;1.59;82.17;99117.22;4455097;32;19968;-68
2023/03/02 03:53:16;;;;;;;;;;;;;;;1.67;81.66;99110.88;4454877;32;19995;-68
2023/03/02 03:55:44;;;;;;;;;;;;;;;1.62;81.48;99113.66;4454824;32;20047;-68
2023/03/02 03:58:12;;;;;;;;;;;;;;;1.58;81.26;99119.88;4455236;32;19981;-68
2023/03/02 04:00:40;;;;;;;;;;;;;;;1.57;80.64;99123.34;4454809;32;20334;-68
2023/03/02 04:03:08;;;;;;;;;;;;;;;1.57;79.73;99120.78;4455030;32;19989;-68
2023/03/02 04:05:36;;;;;;;;;;;;;;;1.57;76.96;99120.78;4454780;32;19994;-68
2023/03/02 04:08:03;;;;;;;;;;;;;;;1.57;76.78;99124.19;4454955;32;20015;-68
2023/03/02 04:10:31;;;;;;;;;;;;;;;1.58;75.96;99123.28;4450310;32;20409;-68
2023/03/02 04:12:59;;;;;;;;;;;;;;;1.63;75.50;99127.41;4441688;32;20027;-68
2023/03/02 04:15:27;;;;;;;;;;;;;;;1.61;74.05;99130.06;4455029;32;20025;-68
2023/03/02 04:17:56;;;;;;;;;;;;;;;1.64;73.26;99118.75;4454992;32;20510;-68
2023/03/02 04:20:27;;;;;;;;;;;;;;;1.53;75.77;99125.25;4455067;32;19976;-68
2023/03/02 04:22:55;;;;;;;;;;;;;;;1.52;76.61;99122.75;4455005;32;19992;-67
2023/03/02 04:25:24;;;;;;;;;;;;;;;1.39;77.95;99123.31;4454914;32;20041;-68
2023/03/02 04:27:52;;;;;;;;;;;;;;;1.43;77.86;99121.41;4454686;32;19977;-68
2023/03/02 04:30:21;;;;;;;;;;;;;;;1.34;78.64;99120.09;4454578;32;20694;-68
2023/03/02 04:32:49;;;;;;;;;;;;;;;1.37;79.09;99112.19;4454479;32;19999;-68
2023/03/02 04:35:16;;;;;;;;;;;;;;;1.23;78.90;99112.84;4454727;32;20029;-68
2023/03/02 04:37:45;;;;;;;;;;;;;;;1.18;78.10;99114.81;4454483;32;19976;-68
2023/03/02 04:40:14;;;;;;;;;;;;;;;1.19;75.99;99110.47;4454361;32;19973;-68
2023/03/02 04:42:43;;;;;;;;;;;;;;;1.20;74.87;99109.56;4454614;32;20021;-68
2023/03/02 04:45:11;;;;;;;;;;;;;;;1.21;73.20;99114.66;4453867;32;20030;-68
2023/03/02 04:47:38;;;;;;;;;;;;;;;1.24;72.25;99104.19;4440079;32;20389;-68
2023/03/02 04:50:06;;;;;;;;;;;;;;;1.31;71.10;99109.91;4453258;32;19985;-68
2023/03/02 04:52:33;;;;;;;;;;;;;;;1.35;70.27;99108.03;4454280;32;20032;-68
2023/03/02 04:55:01;;;;;;;;;;;;;;;1.34;69.41;99108.94;4454448;32;20511;-68
2023/03/02 04:57:28;;;;;;;;;;;;;;;1.36;68.59;99104.53;4454394;32;19985;-68
2023/03/02 04:59:56;;;;;;;;;;;;;;;1.30;69.02;99105.62;4454400;32;19964;-68
2023/03/02 05:02:23;;;;;;;;;;;;;;;1.31;69.23;99109.06;4454475;32;20026;-67
2023/03/02 05:04:51;;;;;;;;;;;;;;;1.28;69.99;99115.22;4454249;32;20031;-68
2023/03/02 05:07:18;;;;;;;;;;;;;;;1.21;69.47;99117.25;4454381;32;20059;-68
2023/03/02 05:09:46;;;;;;;;;;;;;;;1.25;69.04;99105.03;4440062;32;20041;-68
2023/03/02 05:12:13;;;;;;;;;;;;;;;1.34;67.30;99120.09;4438976;32;19993;-68
2023/03/02 05:14:40;;;;;;;;;;;;;;;1.42;65.40;99112.00;4451533;32;20003;-68
2023/03/02 05:17:08;;;;;;;;;;;;;;;1.53;63.96;99108.91;4454085;32;19977;-68
2023/03/02 05:19:35;;;;;;;;;;;;;;;1.50;62.76;99115.06;4453964;32;19983;-68
2023/03/02 05:22:02;;;;;;;;;;;;;;;1.49;63.38;99112.56;4454008;32;19977;-68
2023/03/02 05:24:30;;;;;;;;;;;;;;;1.44;63.40;99114.50;4453848;32;20000;-68
2023/03/02 05:26:58;;;;;;;;;;;;;;;1.43;62.40;99113.66;4453734;32;20326;-68
2023/03/02 05:29:25;;;;;;;;;;;;;;;1.50;61.05;99117.66;4453531;32;19976;-68
2023/03/02 05:31:52;;;;;;;;;;;;;;;1.53;60.14;99120.09;4453925;32;20323;-68
2023/03/02 05:34:20;;;;;;;;;;;;;;;1.63;58.84;99119.66;4453000;32;20027;-68
2023/03/02 05:36:47;;;;;;;;;;;;;;;1.68;58.73;99125.44;4453565;32;20056;-68
2023/03/02 05:39:14;;;;;;;;;;;;;;;1.72;57.73;99124.37;4453652;32;19988;-68
2023/03/02 05:41:42;;;;;;;;;;;;;;;1.80;57.55;99124.84;4453588;32;20630;-69
2023/03/02 05:44:10;;;;;;;;;;;;;;;1.84;57.05;99134.13;4448997;32;20023;-69
2023/03/02 05:46:38;;;;;;;;;;;;;;;1.88;56.50;99130.50;4438228;32;20418;-69
2023/03/02 05:49:06;;;;;;;;;;;;;;;1.98;55.38;99137.81;4438709;32;19969;-68
2023/03/02 05:51:33;;;;;;;;;;;;;;;2.05;55.11;99127.09;4438311;32;20110;-69
2023/03/02 05:54:01;;;;;;;;;;;;;;;2.19;54.08;99136.75;4437641;32;20037;-69
2023/03/02 05:56:28;;;;;;;;;;;;;;;2.29;54.14;99143.16;4438115;32;19999;-70
2023/03/02 05:58:55;;;;;;;;;;;;;;;2.39;53.57;99145.28;4435439;32;20009;-68
2023/03/02 06:01:23;;;;;;;;;;;;;;;2.46;52.99;99142.31;4437806;32;19988;-68
2023/03/02 06:03:50;;;;;;;;;;;;;;;2.56;52.64;99144.44;4437725;32;19973;-69
2023/03/02 06:06:17;;;;;;;;;;;;;;;2.69;51.88;99142.91;4437941;32;19969;-69
2023/03/02 06:08:45;;;;;;;;;;;;;;;2.87;50.73;99138.53;4435357;32;19980;-68
2023/03/02 06:11:12;;;;;;;;;;;;;;;2.91;50.96;99134.88;4429799;32;20327;-65
2023/03/02 06:13:39;;;;;;;;;;;;;;;3.00;50.89;99131.81;4437153;32;19985;-67
2023/03/02 06:16:07;;;;;;;;;;;;;;;3.17;50.16;99135.28;4437166;32;19983;-67
2023/03/02 06:18:35;;;;;;;;;;;;;;;3.17;49.52;99133.50;4436137;32;20038;-67
2023/03/02 06:21:03;;;;;;;;;;;;;;;3.32;49.75;99141.41;4435231;32;20016;-67
2023/03/02 06:23:30;;;;;;;;;;;;;;;3.42;48.98;99146.91;4437256;32;20003;-67
2023/03/02 06:25:58;;;;;;;;;;;;;;;3.57;48.91;99153.00;4437339;32;19993;-68
2023/03/02 06:28:26;;;;;;;;;;;;;;;3.59;48.33;99152.03;4436224;32;19981;-69
2023/03/02 06:30:53;;;;;;;;;;;;;;;3.72;49.87;99157.34;4435110;32;20003;-67
2023/03/02 06:33:21;;;;;;;;;;;;;;;3.81;50.25;99163.78;4434061;32;20000;-67
2023/03/02 06:35:49;;;;;;;;;;;;;;;3.96;49.49;99164.72;4432604;32;19980;-67
2023/03/02 06:38:16;;;;;;;;;;;;;;;4.02;48.71;99167.78;4434707;32;20048;-68
2023/03/02 06:40:44;;;;;;;;;;;;;;;4.13;48.76;99169.75;4429894;32;19974;-67
2023/03/02 06:43:12;;;;;;;;;;;;;;;4.27;49.65;99171.59;4428537;32;20051;-66
2023/03/02 06:45:39;;;;;;;;;;;;;;;4.22;47.88;99178.78;4430128;32;20043;-67
2023/03/02 06:48:07;;;;;;;;;;;;;;;4.29;47.53;99169.75;4435925;32;19980;-67
2023/03/02 06:50:34;;;;;;;;;;;;;;;4.50;49.05;99182.44;4435051;32;20820;-67
2023/03/02 06:53:01;;;;;;;;;;;;;;;4.54;49.28;99183.91;4421987;32;19982;-68
2023/03/02 06:55:29;;;;;;;;;;;;;;;4.56;48.60;99180.31;4428964;32;20676;-68
2023/03/02 06:57:56;;;;;;;;;;;;;;;4.67;48.36;99182.28;4427070;32;20115;-67
2023/03/02 07:00:25;;;;;;;;;;;;;;;4.72;48.31;99185.41;4423439;32;19977;-68
2023/03/02 07:02:53;;;;;;;;;;;;;;;4.76;46.44;99181.72;4428876;32;19993;-68
2023/03/02 07:05:21;;;;;;;;;;;;;;;4.87;46.96;99185.47;4435411;32;20049;-68
2023/03/02 07:07:49;;;;;;;;;;;;;;;4.92;46.10;99184.28;4436543;32;20039;-68
2023/03/02 07:10:17;;;;;;;;;;;;;;;4.92;45.46;99181.66;4439141;32;19989;-68
2023/03/02 07:12:44;;;;;;;;;;;;;;;4.80;44.89;99175.44;4438958;32;19997;-67
2023/03/02 07:15:13;;;;;;;;;;;;;;;4.82;44.82;99177.13;4438526;32;20037;-68
2023/03/02 07:17:42;;;;;;;;;;;;;;;4.83;44.71;99176.16;4429536;32;20028;-67
2023/03/02 07:20:11;;;;;;;;;;;;;;;5.00;45.59;99178.63;4436366;32;20011;-67
2023/03/02 07:22:39;;;;;;;;;;;;;;;5.19;45.74;99174.91;4437541;32;19999;-67
2023/03/02 07:25:09;;;;;;;;;;;;;;;5.37;45.45;99175.56;4437019;32;19981;-68
2023/03/02 07:27:36;;;;;;;;;;;;;;;5.44;45.13;99174.25;4436410;32;20000;-67
2023/03/02 07:30:05;;;;;;;;;;;;;;;5.38;44.34;99170.25;4430745;32;20455;-70
2023/03/02 07:32:32;;;;;;;;;;;;;;;5.40;44.60;99170.16;4432308;32;20005;-69
2023/03/02 07:34:59;;;;;;;;;;;;;;;5.44;44.28;99177.69;4431692;32;20326;-69
2023/03/02 07:37:27;;;;;;;;;;;;;;;5.47;45.01;99179.25;4430705;32;19981;-67
2023/03/02 07:39:54;;;;;;;;;;;;;;;5.53;45.18;99178.03;4431083;32;20003;-67
2023/03/02 07:42:21;;;;;;;;;;;;;;;5.60;45.09;99181.91;4432799;32;20546;-67
2023/03/02 07:44:51;;;;;;;;;;;;;;;5.61;44.49;99187.03;4433386;32;20000;-67
2023/03/02 07:47:18;;;;;;;;;;;;;;;5.83;44.91;99189.12;4438070;32;20270;-68
2023/03/02 07:49:45;;;;;;;;;;;;;;;5.95;44.01;99181.47;4433521;32;20335;-68
2023/03/02 07:52:13;;;;;;;;;;;;;;;6.06;44.44;99184.25;4435662;32;19989;-69
2023/03/02 07:54:41;;;;;;;;;;;;;;;6.17;43.98;99188.78;4432660;32;19993;-67
2023/03/02 07:57:08;;;;;;;;;;;;;;;6.23;45.79;99188.38;4431879;32;19992;-67
2023/03/02 07:59:36;;;;;;;;;;;;;;;6.29;44.53;99187.97;4437205;32;20042;-68
2023/03/02 08:02:04;;;;;;;;;;;;;;;6.19;45.17;99184.28;4439800;32;20015;-68
2023/03/02 08:04:33;;;;;;;;;;;;;;;6.28;43.33;99182.88;4435214;32;19996;-68
2023/03/02 08:07:00;;;;;;;;;;;;;;;6.26;44.81;99177.78;4433814;32;20001;-68
2023/03/02 08:09:28;;;;;;;;;;;;;;;6.33;45.71;99178.22;4428078;32;19988;-68
2023/03/02 08:11:56;;;;;;;;;;;;;;;6.50;44.67;99174.50;4435535;32;20000;-68
2023/03/02 08:14:23;;;;;;;;;;;;;;;6.42;44.13;99180.22;4438622;32;20020;-67
2023/03/02 08:16:51;;;;;;;;;;;;;;;6.32;44.97;99171.34;4433158;32;20043;-68
2023/03/02 08:19:19;;;;;;;;;;;;;;;6.20;44.56;99179.00;4436025;32;20386;-69
2023/03/02 08:21:46;;;;;;;;;;;;;;;6.32;45.98;99173.94;4437017;32;20354;-69
2023/03/02 08:24:13;;;;;;;;;;;;;;;6.47;44.84;99172.94;4433618;32;20048;-70
2023/03/02 08:26:41;;;;;;;;;;;;;;;6.54;45.81;99173.34;4433527;32;20358;-70
2023/03/02 08:29:09;;;;;;;;;;;;;;;6.58;46.40;99172.22;4431788;32;19989;-69
2023/03/02 08:31:36;;;;;;;;;;;;;;;6.49;44.66;99168.44;4432140;32;19989;-70
2023/03/02 08:34:04;;;;;;;;;;;;;;;6.59;45.98;99170.47;4432573;32;19993;-70
2023/03/02 08:36:31;;;;;;;;;;;;;;;6.74;46.38;99169.44;4434114;32;20329;-70
2023/03/02 08:39:00;;;;;;;;;;;;;;;6.77;45.96;99170.97;4424230;32;19997;-70
2023/03/02 08:41:27;;;;;;;;;;;;;;;6.96;46.04;99161.00;4435863;32;20106;-70
2023/03/02 08:43:55;;;;;;;;;;;;;;;7.03;46.24;99162.25;4434179;32;19988;-71
2023/03/02 08:46:22;;;;;;;;;;;;;;;7.14;46.60;99158.09;4438700;32;20016;-70
2023/03/02 08:48:50;;;;;;;;;;;;;;;6.95;44.84;99161.09;4437550;32;19996;-71
2023/03/02 08:51:21;;;;;;;;;;;;;;;7.02;47.01;99163.19;4433329;32;19997;-69
2023/03/02 08:53:49;;;;;;;;;;;;;;;7.12;46.44;99155.59;4433745;32;20019;-71
2023/03/02 08:56:27;;;;;;;;;;;;;;;7.08;45.63;99157.53;4434739;32;20640;-70
2023/03/02 08:58:56;;;;;;;;;;;;;;;7.21;46.76;99159.34;4436389;32;20360;-71
2023/03/02 09:01:28;;;;;;;;;;;;;;;7.43;46.63;99154.28;4430307;32;20446;-69
2023/03/02 09:03:58;;;;;;;;;;;;;;;7.46;45.10;99155.84;4433523;32;20042;-70
2023/03/02 09:06:27;;;;;;;;;;;;;;;7.42;46.46;99151.78;4435468;32;19984;-70
2023/03/02 09:08:54;;;;;;;;;;;;;;;7.62;48.02;99151.22;4437477;32;19989;-70
2023/03/02 09:11:21;;;;;;;;;;;;;;;7.70;47.38;99148.06;4430599;32;20003;-69
2023/03/02 09:13:49;;;;;;;;;;;;;;;7.70;46.04;99155.06;4440506;32;20051;-67
2023/03/02 09:16:16;;;;;;;;;;;;;;;7.50;46.43;99154.69;4434320;32;19969;-67
2023/03/02 09:18:44;;;;;;;;;;;;;;;7.58;46.96;99152.34;4434803;32;20073;-67
2023/03/02 09:21:11;;;;;;;;;;;;;;;7.46;47.00;99142.81;4421173;32;20044;-67
2023/03/02 09:23:38;;;;;;;;;;;;;;;7.62;46.86;99148.59;4429901;32;19981;-67
2023/03/02 09:26:05;;;;;;;;;;;;;;;7.71;47.47;99146.28;4432485;32;19984;-67
2023/03/02 09:28:35;;;;;;;;;;;;;;;7.67;47.30;99142.22;4430088;32;20005;-68
2023/03/02 09:31:04;;;;;;;;;;;;;;;7.86;46.57;99141.72;4430342;32;20012;-67
2023/03/02 09:33:31;;;;;;;;;;;;;;;8.01;46.25;99143.25;4424201;32;20049;-67
2023/03/02 09:36:00;;;;;;;;;;;;;;;7.97;46.91;99137.41;4437246;32;19977;-67
2023/03/02 09:38:27;;;;;;;;;;;;;;;7.97;46.42;99142.63;4437143;32;20051;-67
2023/03/02 09:41:13;;;;;;;;;;;;;;;8.11;47.58;99136.41;4434175;32;20048;-67
2023/03/02 09:43:44;;;;;;;;;;;;;;;8.05;46.60;99146.47;4437093;32;20015;-67
2023/03/02 09:46:17;;;;;;;;;;;;;;;8.33;49.36;99138.28;4435102;32;19992;-67
2023/03/02 09:48:53;;;;;;;;;;;;;;;8.49;47.15;99137.16;4415908;32;19985;-67
2023/03/02 09:51:29;;;;;;;;;;;;;;;8.43;46.72;99137.59;4435760;32;20393;-67
2023/03/02 09:53:58;;;;;;;;;;;;;;;8.33;47.39;99138.28;4430769;32;20030;-67
2023/03/02 09:56:26;;;;;;;;;;;;;;;8.55;47.89;99136.69;4427190;32;20595;-67
2023/03/02 09:59:01;;;;;;;;;;;;;;;8.66;47.45;99136.72;4422666;32;20000;-67
2023/03/02 10:01:34;;;;;;;;;;;;;;;8.55;47.00;99139.31;4432259;32;20007;-67
2023/03/02 10:04:05;;;;;;;;;;;;;;;8.59;46.58;99138.13;4419018;32;19984;-67
2023/03/02 10:06:33;;;;;;;;;;;;;;;8.33;47.16;99129.63;4412943;32;19976;-67
2023/03/02 10:09:01;;;;;;;;;;;;;;;8.58;47.65;99136.47;4434313;32;19992;-67
2023/03/02 10:11:28;;;;;;;;;;;;;;;8.87;47.04;99136.03;4429310;32;20068;-67
2023/03/02 10:14:06;;;;;;;;;;;;;;;8.97;45.31;99129.16;4435285;32;19993;-67
2023/03/02 10:16:40;;;;;;;;;;;;;;;9.03;46.58;99131.28;4418277;32;20322;-67
2023/03/02 10:19:09;;;;;;;;;;;;;;;8.99;45.49;99131.66;4427207;32;19993;-67
2023/03/02 10:21:38;;;;;;;;;;;;;;;8.87;44.83;99133.41;4418970;32;19992;-67
2023/03/02 10:24:08;;;;;;;;;;;;;;;8.88;46.16;99127.25;4434849;32;20054;-67
2023/03/02 10:26:40;;;;;;;;;;;;;;;8.82;44.58;99127.72;4436414;32;20052;-67
2023/03/02 10:29:26;;;;;;;;;;;;;;;8.77;44.74;99125.47;4430059;32;20048;-68
2023/03/02 10:32:20;;;;;;;;;;;;;;;9.01;44.99;99122.75;4429976;32;20390;-67
2023/03/02 10:34:48;;;;;;;;;;;;;;;9.25;44.68;99119.19;4431401;32;19973;-67
2023/03/02 10:37:27;;;;;;;;;;;;;;;9.12;43.76;99119.31;4429943;32;20068;-67
2023/03/02 10:39:55;;;;;;;;;;;;;;;9.23;45.12;99110.63;4434759;32;19985;-66
2023/03/02 10:42:27;;;;;;;;;;;;;;;9.23;43.51;99110.63;4430172;32;20164;-67
2023/03/02 10:45:00;;;;;;;;;;;;;;;9.16;43.44;99106.81;4430865;32;20016;-67
2023/03/02 10:47:28;;;;;;;;;;;;;;;9.38;43.34;99109.41;4418196;32;20007;-66
2023/03/02 10:49:55;;;;;;;;;;;;;;;9.43;42.97;99109.06;4427524;32;19981;-68
2023/03/02 10:52:24;;;;;;;;;;;;;;;9.34;42.91;99102.78;4430936;32;19981;-66
2023/03/02 10:55:04;;;;;;;;;;;;;;;9.52;45.00;99092.66;4420549;32;20060;-68
2023/03/02 10:57:37;;;;;;;;;;;;;;;9.69;43.75;99099.16;4425296;32;19985;-67
2023/03/02 11:00:14;;;;;;;;;;;;;;;9.64;44.02;99097.84;4433045;32;20023;-67
2023/03/02 11:02:50;;;;;;;;;;;;;;;9.64;43.40;99105.69;4436944;32;20947;-68
2023/03/02 11:05:22;;;;;;;;;;;;;;;9.58;44.76;99093.94;4438726;32;20450;-68
2023/03/02 11:07:54;;;;;;;;;;;;;;;9.58;42.65;99093.94;4436943;32;20048;-68
2023/03/02 11:10:23;;;;;;;;;;;;;;;9.57;43.30;99093.09;4433568;32;20032;-67
2023/03/02 11:12:51;;;;;;;;;;;;;;;9.73;44.55;99092.69;4436154;32;20040;-67
2023/03/02 11:15:30;;;;;;;;;;;;;;;9.79;44.01;99087.94;4430976;32;19984;-68
2023/03/02 11:17:59;;;;;;;;;;;;;;;9.98;44.91;99088.09;4431525;32;20004;-68
2023/03/02 11:20:29;;;;;;;;;;;;;;;10.16;44.18;99077.06;4437415;32;19993;-68
2023/03/02 11:23:05;;;;;;;;;;;;;;;10.08;44.31;99081.16;4409593;32;19985;-68
2023/03/02 11:25:34;;;;;;;;;;;;;;;10.19;43.25;99092.50;4434854;32;20338;-68
2023/03/02 11:28:04;;;;;;;;;;;;;;;10.40;45.23;99077.69;4424597;32;20006;-67
2023/03/02 11:30:33;;;;;;;;;;;;;;;10.53;45.06;99071.41;4424458;32;20471;-67
2023/03/02 11:33:07;;;;;;;;;;;;;;;10.51;46.25;99070.69;4418458;32;20146;-67
2023/03/02 11:35:50;;;;;;;;;;;;;;;10.51;46.27;99065.47;4420993;32;19985;-68
2023/03/02 11:38:22;;;;;;;;;;;;;;;10.57;45.83;99062.34;4420191;32;20023;-68
2023/03/02 11:40:54;;;;;;;;;;;;;;;10.63;45.38;99067.88;4415974;32;20326;-68
2023/03/02 11:43:22;;;;;;;;;;;;;;;10.77;46.37;99061.47;4417548;32;20065;-67
2023/03/02 11:45:59;;;;;;;;;;;;;;;11.10;46.21;99059.53;4435977;32;20042;-67
2023/03/02 11:48:30;;;;;;;;;;;;;;;10.88;47.16;99054.47;4422459;32;19965;-67
2023/03/02 11:50:59;;;;;;;;;;;;;;;10.83;46.57;99058.31;4434779;32;20046;-67
2023/03/02 11:53:30;;;;;;;;;;;;;;;10.88;46.19;99041.37;4437165;32;20026;-67
2023/03/02 11:55:57;;;;;;;;;;;;;;;10.75;47.31;99044.22;4417941;32;19989;-66
2023/03/02 11:58:28;;;;;;;;;;;;;;;10.85;47.37;99044.25;4434590;32;19992;-67
2023/03/02 12:00:56;;;;;;;;;;;;;;;10.77;48.04;99048.37;4431557;32;19997;-68
2023/03/02 12:03:35;;;;;;;;;;;;;;;10.92;49.03;99042.78;4422883;32;20281;-68
2023/03/02 12:06:05;;;;;;;;;;;;;;;10.96;49.30;99038.91;4427561;32;20311;-66
2023/03/02 12:08:35;;;;;;;;;;;;;;;11.01;52.05;99039.34;4432904;32;20361;-67
2023/03/02 12:11:03;;;;;;;;;;;;;;;11.23;49.29;99034.84;4429372;32;20031;-67
2023/03/02 12:13:38;;;;;;;;;;;;;;;11.21;47.80;99037.62;4431757;32;20038;-67
2023/03/02 12:16:22;;;;;;;;;;;;;;;11.16;47.99;99035.41;4414225;32;20052;-67
2023/03/02 12:18:50;;;;;;;;;;;;;;;11.36;48.17;99027.56;4433384;32;19985;-67
2023/03/02 12:21:22;;;;;;;;;;;;;;;11.28;48.10;99027.41;4430063;32;20016;-67
2023/03/02 12:23:53;;;;;;;;;;;;;;;11.44;50.84;99021.62;4431408;32;20039;-66
2023/03/02 12:26:27;;;;;;;;;;;;;;;11.47;50.44;99022.19;4429259;32;19984;-67
2023/03/02 12:28:54;;;;;;;;;;;;;;;11.60;51.00;99019.31;4433530;32;20322;-65
2023/03/02 12:31:24;;;;;;;;;;;;;;;11.57;49.93;99027.47;4432290;32;20045;-66
2023/03/02 12:33:51;;;;;;;;;;;;;;;11.75;49.81;99019.72;4428092;32;20000;-67
2023/03/02 12:36:28;;;;;;;;;;;;;;;11.60;49.19;99023.75;4435665;32;20019;-66
2023/03/02 12:39:03;;;;;;;;;;;;;;;11.65;50.26;99021.53;4416758;32;20023;-66
2023/03/02 12:41:34;;;;;;;;;;;;;;;11.88;50.37;99022.91;4422669;32;20004;-66
2023/03/02 12:44:06;;;;;;;;;;;;;;;11.71;50.93;99013.91;4406440;32;20339;-67
2023/03/02 12:46:38;;;;;;;;;;;;;;;11.82;50.94;99020.81;4419379;32;19981;-67
2023/03/02 12:49:06;;;;;;;;;;;;;;;11.79;51.22;99009.78;4428149;32;20349;-67
2023/03/02 12:51:55;;;;;;;;;;;;;;;11.62;49.26;99009.50;4425854;32;19997;-67
2023/03/02 12:54:23;;;;;;;;;;;;;;;11.85;50.67;99003.97;4429158;32;20348;-67
2023/03/02 12:57:11;;;;;;;;;;;;;;;11.49;48.97;98996.66;4429820;32;20022;-68
2023/03/02 12:59:39;;;;;;;;;;;;;;;11.68;50.48;98998.44;4421086;32;19981;-68
2023/03/02 13:02:14;;;;;;;;;;;;;;;11.70;49.66;98995.69;4431573;32;19976;-67
2023/03/02 13:04:41;;;;;;;;;;;;;;;11.71;49.64;98992.91;4429534;32;19985;-67
2023/03/02 13:07:16;;;;;;;;;;;;;;;11.99;52.78;98989.59;4425085;32;20428;-67